Time;durP1;ratioP1;P1;durP2;ratioP2;P2;SDS_P1;SDS_P2;PMS_P1;PMS_P2;Temp;Humidity;BMP_temperature;BMP_pressure;BME280_temperature;BME280_humidity;BME280_pressure;Samples;Min_cycle;Max_cycle;Signal;HPM_P1;HPM_P2
2022/02/27 00:02:17;;;;;;;192.60;78.00;;;;;;;-1.43;75.60;100338.93;433112;1268;108899;-42
2022/02/27 00:12:24;;;;;;;199.60;78.30;;;;;;;-1.32;75.73;100351.11;433595;1268;97903;-40
2022/02/27 00:22:32;;;;;;;188.70;74.40;;;;;;;-1.31;75.75;100342.40;433584;1268;109827;-42
2022/02/27 00:32:40;;;;;;;182.30;75.10;;;;;;;-1.40;75.95;100340.62;433653;1268;108764;-42
2022/02/27 00:42:48;;;;;;;177.50;73.80;;;;;;;-1.62;75.65;100344.27;433097;1268;108856;-42
2022/02/27 00:52:55;;;;;;;132.00;61.90;;;;;;;-1.69;75.83;100345.80;433687;1268;98116;-41
2022/02/27 01:03:03;;;;;;;97.40;49.60;;;;;;;-1.64;75.79;100347.38;432992;1268;108855;-40
2022/02/27 01:13:09;;;;;;;128.60;59.20;;;;;;;-1.57;75.77;100342.92;433683;1268;97812;-40
2022/02/27 01:23:16;;;;;;;138.90;62.80;;;;;;;-1.55;76.16;100348.27;433278;1270;111147;-41
2022/02/27 01:33:23;;;;;;;143.40;61.10;;;;;;;-1.54;76.08;100342.02;433619;1268;108654;-42
2022/02/27 01:43:30;;;;;;;120.20;56.00;;;;;;;-1.62;76.20;100344.27;432969;1270;108841;-41
2022/02/27 02:03:44;;;;;;;102.00;51.60;;;;;;;-1.61;76.39;100335.20;432950;1268;111075;-41
2022/02/27 02:13:51;;;;;;;93.60;47.10;;;;;;;-1.51;76.27;100335.17;433875;1258;108836;-42
2022/02/27 02:46:17;;;;;;;152.50;64.90;;;;;;;-1.49;76.59;100341.27;431646;1270;109142;-43
2022/02/27 02:57:02;;;;;;;138.80;65.30;;;;;;;-1.66;76.77;100353.36;430659;1276;98358;-41
2022/02/27 03:18:46;;;;;;;146.70;64.00;;;;;;;-2.19;76.72;100343.33;430411;1276;109237;-43
2022/02/27 03:28:54;;;;;;;126.60;62.70;;;;;;;-2.35;76.52;100344.81;432485;1270;97910;-40
2022/02/27 03:39:02;;;;;;;115.40;55.90;;;;;;;-2.41;76.43;100339.52;432336;1271;111786;-42
2022/02/27 04:11:55;;;;;;;155.30;65.60;;;;;;;-2.55;76.55;100345.63;431826;1270;111435;-41
2022/02/27 04:22:02;;;;;;;156.20;65.80;;;;;;;-2.81;76.46;100343.07;432667;1270;109579;-41
2022/02/27 04:32:07;;;;;;;149.70;64.40;;;;;;;-3.08;76.52;100343.99;432263;1271;109210;-41
2022/02/27 04:42:52;;;;;;;129.50;59.30;;;;;;;-3.24;76.85;100358.16;431597;1271;98029;-42
2022/02/27 05:15:50;;;;;;;141.90;59.90;;;;;;;-2.98;76.85;100402.35;431674;1271;111510;-41
2022/02/27 05:26:35;;;;;;;133.50;63.50;;;;;;;-3.12;76.62;100414.67;431193;1274;109140;-40
2022/02/27 05:37:02;;;;;;;142.50;61.20;;;;;;;-3.27;76.81;100423.77;431289;1274;98025;-43
2022/02/27 05:58:36;;;;;;;145.70;63.50;;;;;;;-3.43;76.84;100446.46;431477;1271;109159;-40
2022/02/27 06:08:43;;;;;;;137.00;61.20;;;;;;;-3.47;77.04;100456.17;432364;1271;97884;-41
2022/02/27 06:30:02;;;;;;;125.00;61.00;;;;;;;-3.09;76.83;100461.90;432546;1271;109133;-41
2022/02/27 06:50:58;;;;;;;141.60;65.60;;;;;;;-2.34;77.42;100458.31;432583;1271;109090;-41
2022/02/27 07:35:35;;;;;;;102.40;56.90;;;;;;;-0.63;77.63;100488.14;430250;1277;109192;-41
2022/02/27 07:45:42;;;;;;;69.40;38.80;;;;;;;-0.20;77.72;100488.44;432209;1271;97932;-39
2022/02/27 08:05:56;;;;;;;100.90;50.70;;;;;;;0.55;77.85;100483.00;432258;1270;108945;-40
2022/02/27 08:16:09;;;;;;;109.90;51.60;;;;;;;0.91;77.86;100491.73;432329;1271;108803;-41
2022/02/27 08:26:17;;;;;;;130.20;61.30;;;;;;;1.00;77.75;100494.20;432409;1271;97909;-42
2022/02/27 08:36:24;;;;;;;84.60;46.60;;;;;;;1.04;77.62;100499.74;432375;1271;110965;-40
2022/02/27 08:46:31;;;;;;;68.30;38.70;;;;;;;1.26;77.81;100496.50;432508;1271;108908;-43
2022/02/27 08:56:38;;;;;;;76.10;40.50;;;;;;;1.61;78.03;100490.58;432375;1270;97946;-44
2022/02/27 09:06:45;;;;;;;85.80;44.60;;;;;;;1.75;78.16;100492.02;432559;1270;108818;-41
2022/02/27 09:16:52;;;;;;;99.50;49.10;;;;;;;1.74;78.15;100489.30;432407;1270;109034;-43
2022/02/27 09:27:00;;;;;;;91.60;46.50;;;;;;;1.78;78.40;100487.95;428424;1271;5475487;-42
2022/02/27 09:37:16;;;;;;;74.00;39.70;;;;;;;1.90;78.29;100477.02;432251;1270;108652;-40
2022/02/27 09:57:31;;;;;;;80.20;39.50;;;;;;;2.53;78.35;100468.10;432438;1270;111217;-41
2022/02/27 10:07:38;;;;;;;80.10;40.70;;;;;;;2.47;78.40;100470.23;432456;1270;108384;-42
2022/02/27 10:17:46;;;;;;;62.70;30.20;;;;;;;2.43;78.68;100472.27;432397;1270;110951;-40
2022/02/27 10:27:55;;;;;;;54.30;32.20;;;;;;;2.59;78.58;100464.25;432373;1270;98022;-40
2022/02/27 10:38:03;;;;;;;67.50;33.30;;;;;;;2.69;78.62;100461.36;432327;1270;107506;-41
2022/02/27 10:48:12;;;;;;;78.90;39.50;;;;;;;2.63;78.78;100457.64;432429;1270;97542;-43
2022/02/27 10:58:21;;;;;;;75.70;40.20;;;;;;;2.55;78.68;100451.36;432483;1270;97947;-43
2022/02/27 11:08:30;;;;;;;65.80;35.50;;;;;;;2.61;78.59;100444.44;432346;1270;110097;-43
2022/02/27 11:18:39;;;;;;;54.60;29.40;;;;;;;2.79;78.68;100435.30;432353;1270;108519;-43
2022/02/27 11:28:47;;;;;;;74.60;37.10;;;;;;;3.11;78.75;100426.09;432367;1270;98047;-42
2022/02/27 11:49:07;;;;;;;84.90;42.30;;;;;;;3.25;78.64;100398.64;432428;1270;108890;-41
2022/02/27 11:59:14;;;;;;;;;;;;;;;3.28;78.58;100396.27;432340;1270;97906;-40
2022/02/27 12:09:20;;;;;;;47.10;26.80;;;;;;;3.37;78.60;100386.33;432574;1270;108820;-40
2022/02/27 12:19:32;;;;;;;49.30;24.40;;;;;;;3.42;78.56;100386.23;432353;1270;98031;-40
2022/02/27 12:29:37;;;;;;;48.80;22.30;;;;;;;3.24;78.54;100390.16;432342;1270;111285;-40
2022/02/27 12:39:46;;;;;;;26.10;16.20;;;;;;;3.29;78.40;100387.95;432447;1270;108822;-40
2022/02/27 13:20:34;;;;;;;41.00;18.50;;;;;;;3.62;77.31;100364.53;432320;1270;108599;-41
2022/02/27 13:30:42;;;;;;;41.60;20.50;;;;;;;3.60;76.84;100363.70;432487;1270;97928;-42
2022/02/27 13:40:54;;;;;;;35.30;17.10;;;;;;;3.57;76.61;100363.77;432314;1270;111805;-42
2022/02/27 13:51:02;;;;;;;25.60;15.10;;;;;;;3.72;76.28;100355.10;432262;1271;107892;-41
2022/02/27 14:01:14;;;;;;;44.40;21.90;;;;;;;3.71;76.09;100351.30;432418;1270;97985;-40
2022/02/27 14:11:26;;;;;;;43.50;21.50;;;;;;;3.51;75.99;100353.31;432502;1269;97918;-41
2022/02/27 14:31:46;;;;;;;46.60;21.80;;;;;;;3.20;76.21;100336.35;432537;1270;108762;-40
2022/02/27 14:41:53;;;;;;;63.60;27.60;;;;;;;2.97;76.45;100334.92;432330;1268;97914;-41
2022/02/27 14:51:59;;;;;;;41.80;20.70;;;;;;;2.85;76.30;100332.94;432464;1270;110671;-41
2022/02/27 15:02:12;;;;;;;41.00;18.10;;;;;;;2.88;76.50;100323.45;432367;1270;108993;-41
2022/02/27 15:32:34;;;;;;;33.40;19.00;;;;;;;2.28;76.13;100350.52;432489;1270;111253;-42
2022/02/27 15:42:42;;;;;;;;;;;;;;;2.16;76.39;100357.20;432437;1270;108986;-42
2022/02/27 15:52:48;;;;;;;45.20;19.80;;;;;;;1.96;76.47;100355.10;432417;1270;96670;-41
2022/02/27 16:02:58;;;;;;;54.10;22.20;;;;;;;1.57;76.23;100354.04;432686;1270;110905;-41
2022/02/27 16:13:08;;;;;;;40.40;19.70;;;;;;;1.30;76.31;100355.67;432360;1270;108875;-40
2022/02/27 16:23:13;;;;;;;;;;;;;;;1.08;76.38;100361.70;432522;1270;97933;-44
2022/02/27 16:33:19;;;;;;;50.80;23.70;;;;;;;0.98;76.65;100363.17;432580;1270;111151;-41
2022/02/27 16:43:27;;;;;;;75.40;33.40;;;;;;;1.00;76.95;100362.37;432599;1270;108833;-40
2022/02/27 16:53:34;;;;;;;63.30;28.00;;;;;;;0.86;76.89;100370.06;432598;1270;97900;-41
2022/02/27 17:03:42;;;;;;;63.10;30.50;;;;;;;0.69;76.79;100367.48;432776;1270;111050;-41
2022/02/27 17:23:56;;;;;;;100.90;49.20;;;;;;;0.24;76.84;100373.54;432608;1270;108850;-43
2022/02/27 17:34:03;;;;;;;206.90;87.10;;;;;;;0.15;77.00;100374.41;432572;1270;97526;-42
2022/02/27 17:44:11;;;;;;;145.80;64.50;;;;;;;0.15;76.95;100365.60;432644;1270;109295;-41
2022/02/27 17:54:19;;;;;;;96.90;46.10;;;;;;;0.07;76.98;100358.05;432705;1270;97938;-40
2022/02/27 18:04:27;;;;;;;101.50;44.70;;;;;;;-0.03;77.30;100365.20;432686;1270;111037;-41
2022/02/27 18:14:33;;;;;;;70.60;30.70;;;;;;;-0.15;77.61;100354.41;432673;1270;107521;-40
2022/02/27 18:24:40;;;;;;;66.40;29.50;;;;;;;-0.20;77.58;100343.05;432695;1270;108404;-44
2022/02/27 18:34:47;;;;;;;95.20;43.20;;;;;;;-0.31;77.69;100343.34;432710;1270;97529;-41
2022/02/27 18:44:54;;;;;;;95.20;45.40;;;;;;;-0.43;77.44;100338.53;432630;1270;111084;-40
2022/02/27 18:55:02;;;;;;;80.50;37.60;;;;;;;-0.51;77.38;100331.89;432649;1270;108902;-40
2022/02/27 19:05:09;;;;;;;66.30;31.20;;;;;;;-0.66;77.62;100325.02;432709;1270;97904;-42
2022/02/27 19:15:19;;;;;;;113.80;39.70;;;;;;;-0.78;77.72;100313.30;432648;1270;109693;-41
2022/02/27 19:25:26;;;;;;;148.90;55.10;;;;;;;-0.95;77.94;100310.98;432721;1270;109000;-41
2022/02/27 19:35:35;;;;;;;159.00;61.20;;;;;;;-1.17;78.11;100303.66;432510;1270;98002;-43
2022/02/27 19:45:42;;;;;;;137.20;53.80;;;;;;;-1.41;78.07;100312.29;432449;1270;113073;-41
2022/02/27 19:55:52;;;;;;;143.60;52.20;;;;;;;-1.58;78.26;100315.48;432359;1270;108826;-41
2022/02/27 20:06:00;;;;;;;151.70;63.80;;;;;;;-1.71;78.37;100311.86;432668;1270;97521;-40
2022/02/27 20:16:08;;;;;;;175.90;81.30;;;;;;;-1.68;78.57;100305.14;432405;1271;111069;-41
2022/02/27 20:36:23;;;;;;;307.70;121.50;;;;;;;-1.58;78.78;100300.29;432738;1270;97897;-41
2022/02/27 20:46:30;;;;;;;275.70;103.10;;;;;;;-1.66;78.80;100301.17;432657;1270;111165;-43
2022/02/27 20:56:37;;;;;;;222.70;81.30;;;;;;;-1.83;78.76;100294.46;432749;1270;108890;-41
2022/02/27 21:06:45;;;;;;;184.60;65.50;;;;;;;-1.98;78.88;100289.52;432806;1270;108917;-40
2022/02/27 21:16:52;;;;;;;124.80;54.20;;;;;;;-1.99;78.88;100293.70;432667;1270;98030;-41
2022/02/27 21:26:59;;;;;;;124.60;50.70;;;;;;;-1.85;78.98;100286.27;428595;1270;5632291;-40
2022/02/27 21:37:07;;;;;;;93.70;47.80;;;;;;;-1.71;79.09;100278.38;432539;1270;97843;-41
2022/02/27 21:47:13;;;;;;;145.00;61.60;;;;;;;-1.66;79.36;100277.52;432820;1270;110851;-43
2022/02/27 21:57:21;;;;;;;106.50;47.30;;;;;;;-1.80;79.34;100273.80;432256;1271;108799;-40
2022/02/27 22:27:42;;;;;;;100.40;41.80;;;;;;;-2.40;79.20;100267.77;432613;1270;108657;-40
2022/02/27 22:37:50;;;;;;;94.20;38.00;;;;;;;-2.42;79.18;100271.31;432496;1270;97990;-42
2022/02/27 22:47:56;;;;;;;98.10;37.80;;;;;;;-2.41;79.03;100275.23;432647;1270;111126;-39
2022/02/27 22:58:02;;;;;;;112.80;43.80;;;;;;;-2.35;79.38;100277.28;432626;1270;108645;-40
2022/02/27 23:18:36;;;;;;;88.50;36.20;;;;;;;-2.71;79.15;100267.29;432661;1270;111314;-40
2022/02/27 23:28:44;;;;;;;80.40;33.10;;;;;;;-2.94;79.30;100262.17;432794;1270;108965;-41
2022/02/27 23:38:52;;;;;;;88.30;34.20;;;;;;;-3.16;79.22;100259.46;432502;1270;98009;-43
2022/02/27 23:48:59;;;;;;;86.40;39.00;;;;;;;-3.26;79.35;100254.48;432557;1270;111717;-42
2022/02/27 23:59:11;;;;;;;97.00;47.40;;;;;;;-3.27;79.21;100252.30;432586;1270;108216;-43
